Carriage Hill, Washington
Current Conditions -  °F | °C
As of 4:15 PM on Wednesday 26 Nov 2014 (Local Time) from KCLS Reporting Station
Broken Clouds Broken Clouds  
Wind Chill: 59°   Ceiling: 4300
Heat Index: 59°   Visibility: 10mi
Dew Point: 54°   Wind: 6mph
Humidity: 82%   Direction: 200°SSW
Pressure: 30.01"   Gusts: NA
Location:  46.5485°N, 122.112°W
Report Text: KCLS 270015Z AUTO 20005KT 10SM BKN043 15/12 A3001 RMK AO2
Loading
Personal Weather Stations






























Interactive Weather Map New forecast layout! Learn more

10-Day Weather Forecast

Advertisements
Track Severe Weather on mobile